CA-0421 weather

CLOSED Youngstown (E.C. Air) Airport
Alberta, Canada

Public forecast

Using degrees Celsius for public forecast. Weather courtesy of forecast.io.

METAR (pilot weather report)

Closest report is Kindersley Airport, 72.9 nm (135.1 km) E. Retrieved 2019/07/20 19:00 UTC (46 minutes ago):

CYKY 201900Z 00000KT 15SM SCT025 19/14 A3006 RMK CU3 SLP184 DENSITY ALT 3200FT

TAF (pilot weather forecast)

Closest forecast is Wainwright Field 21 Airport, 77.9 nm (144.3 km) N. Retrieved UTC (0 seconds ago):